createdAt,value
2022-12-25T00:00:01.713Z,49.9
2022-12-25T00:01:10.918Z,49.8
2022-12-25T00:02:01.847Z,49.9
2022-12-25T00:03:02.157Z,50.4
2022-12-25T00:04:01.501Z,50.2
2022-12-25T00:05:01.744Z,49.9
2022-12-25T00:06:02.051Z,50.2
2022-12-25T00:07:01.759Z,49.9
2022-12-25T00:08:01.763Z,50.2
2022-12-25T00:09:01.790Z,50.5
2022-12-25T00:10:01.725Z,49.9
2022-12-25T00:11:04.974Z,50.4
2022-12-25T00:12:01.377Z,50.6
2022-12-25T00:13:01.731Z,50.4
2022-12-25T00:14:01.869Z,50.2
2022-12-25T00:15:01.470Z,50.6
2022-12-25T00:16:06.016Z,50.5
2022-12-25T00:17:01.797Z,50.8
2022-12-25T00:18:01.740Z,51.0
2022-12-25T00:19:01.446Z,51.2
2022-12-25T00:20:01.386Z,51.3
2022-12-25T00:21:04.378Z,51.1
2022-12-25T00:22:01.767Z,51.2
2022-12-25T00:23:01.392Z,51.2
2022-12-25T00:24:01.763Z,51.3
2022-12-25T00:25:02.040Z,51.6
2022-12-25T00:26:04.171Z,51.9
2022-12-25T00:27:01.389Z,51.2
2022-12-25T00:28:01.388Z,51.2
2022-12-25T00:29:01.388Z,51.4
2022-12-25T00:30:01.786Z,51.7
2022-12-25T00:31:05.439Z,52.1
2022-12-25T00:32:01.481Z,51.8
2022-12-25T00:33:01.418Z,52.0
2022-12-25T00:34:01.760Z,52.1
2022-12-25T00:35:01.489Z,52.0
2022-12-25T00:36:03.335Z,52.0
2022-12-25T00:37:01.732Z,51.9
2022-12-25T00:38:01.751Z,52.1
2022-12-25T00:39:02.809Z,52.0
2022-12-25T00:40:01.725Z,52.1
2022-12-25T00:41:04.783Z,52.2
2022-12-25T00:42:01.737Z,52.1
2022-12-25T00:43:01.397Z,51.6
2022-12-25T00:44:01.372Z,51.7
2022-12-25T00:45:01.666Z,52.0
2022-12-25T00:46:04.735Z,52.4
2022-12-25T00:47:02.174Z,52.8
2022-12-25T00:48:01.400Z,52.8
2022-12-25T00:49:02.177Z,52.4
2022-12-25T00:50:01.390Z,52.2
2022-12-25T00:51:03.915Z,52.2
2022-12-25T00:52:01.448Z,52.1
2022-12-25T00:53:01.376Z,52.3
2022-12-25T00:54:02.574Z,52.6
2022-12-25T00:55:02.318Z,52.7
2022-12-25T00:56:04.473Z,52.0
2022-12-25T00:57:02.848Z,51.8
2022-12-25T00:58:01.645Z,52.1
2022-12-25T00:59:01.374Z,52.2
2022-12-25T01:00:01.807Z,51.8
2022-12-25T01:01:02.303Z,52.1
2022-12-25T01:02:01.792Z,52.3
2022-12-25T01:03:01.518Z,51.9
2022-12-25T01:04:01.595Z,51.9
2022-12-25T01:05:01.389Z,52.6
2022-12-25T01:06:03.802Z,52.0
2022-12-25T01:07:01.369Z,52.1
2022-12-25T01:08:01.396Z,52.1
2022-12-25T01:09:01.647Z,51.5
2022-12-25T01:10:01.361Z,51.4
2022-12-25T01:11:03.989Z,51.7
2022-12-25T01:12:01.447Z,51.7
2022-12-25T01:13:01.794Z,52.3
2022-12-25T01:14:01.393Z,52.2
2022-12-25T01:15:01.940Z,52.3
2022-12-25T01:16:06.020Z,52.0
2022-12-25T01:17:01.378Z,51.8
2022-12-25T01:18:05.767Z,52.1
2022-12-25T01:19:02.474Z,52.3
2022-12-25T01:20:03.266Z,52.6
2022-12-25T01:21:05.436Z,52.5
2022-12-25T01:22:01.394Z,52.2
2022-12-25T01:23:01.395Z,51.7
2022-12-25T01:24:01.396Z,51.5
2022-12-25T01:25:01.778Z,51.4
2022-12-25T01:26:02.977Z,51.8
2022-12-25T01:27:01.791Z,51.3
2022-12-25T01:28:01.460Z,51.6
2022-12-25T01:29:01.840Z,51.7
2022-12-25T01:30:01.546Z,51.7
2022-12-25T01:31:02.217Z,52.2
2022-12-25T01:32:01.837Z,52.1
2022-12-25T01:33:01.420Z,52.0
2022-12-25T01:34:01.383Z,52.4
2022-12-25T01:35:01.401Z,51.9
2022-12-25T01:36:01.426Z,52.0
2022-12-25T01:37:01.766Z,51.6
2022-12-25T01:38:01.401Z,51.5
2022-12-25T01:39:01.887Z,51.3
2022-12-25T01:40:01.396Z,51.8
2022-12-25T01:41:01.399Z,52.0
2022-12-25T01:42:02.562Z,51.7
2022-12-25T01:43:01.717Z,51.5
2022-12-25T01:44:05.786Z,51.8
2022-12-25T01:45:20.771Z,52.0
2022-12-25T01:46:01.762Z,51.9
2022-12-25T01:47:02.777Z,52.1
2022-12-25T01:48:07.929Z,51.9
2022-12-25T01:49:05.241Z,51.6
2022-12-25T01:50:01.446Z,51.7
2022-12-25T01:51:05.763Z,51.8
2022-12-25T01:52:05.730Z,52.0
2022-12-25T01:53:03.346Z,52.1
2022-12-25T01:54:05.036Z,52.2
2022-12-25T01:55:03.061Z,51.7
2022-12-25T01:56:06.967Z,51.7
2022-12-25T01:57:06.138Z,51.5
2022-12-25T01:58:02.287Z,51.2
2022-12-25T01:59:03.364Z,51.2
2022-12-25T02:00:03.594Z,51.4
2022-12-25T02:01:01.440Z,51.5
2022-12-25T02:02:02.825Z,51.3
2022-12-25T02:03:02.338Z,51.1
2022-12-25T02:04:08.635Z,51.5
2022-12-25T02:05:06.315Z,51.1
2022-12-25T02:06:03.093Z,51.6
2022-12-25T02:07:02.003Z,51.5
2022-12-25T02:08:07.163Z,51.6
2022-12-25T02:09:02.286Z,51.5
2022-12-25T02:10:01.782Z,51.8
2022-12-25T02:11:01.379Z,51.9
2022-12-25T02:12:01.829Z,51.8
2022-12-25T02:13:02.288Z,52.1
2022-12-25T02:14:01.782Z,51.6
2022-12-25T02:15:06.438Z,51.6
2022-12-25T02:16:10.400Z,51.4
2022-12-25T02:17:06.497Z,51.9
2022-12-25T02:18:08.699Z,51.9
2022-12-25T02:19:16.045Z,51.9
2022-12-25T02:20:20.772Z,52.4
2022-12-25T02:21:20.771Z,51.9
2022-12-25T02:22:13.334Z,51.8
2022-12-25T02:23:12.864Z,52.2
2022-12-25T02:24:12.525Z,51.8
2022-12-25T02:25:10.281Z,51.3
2022-12-25T02:26:15.797Z,51.2
2022-12-25T02:27:13.618Z,51.4
2022-12-25T02:28:12.983Z,51.2
2022-12-25T02:29:09.039Z,52.0
2022-12-25T02:30:05.857Z,51.5
2022-12-25T02:31:09.512Z,51.9
2022-12-25T02:32:08.754Z,51.7
2022-12-25T02:33:08.835Z,51.6
2022-12-25T02:34:07.854Z,51.4
2022-12-25T02:35:08.801Z,51.4
2022-12-25T02:36:08.638Z,51.0
2022-12-25T02:37:09.267Z,51.4
2022-12-25T02:38:06.452Z,51.4
2022-12-25T02:39:04.091Z,51.0
2022-12-25T02:40:09.401Z,51.4
2022-12-25T02:41:10.000Z,51.8
2022-12-25T02:42:07.323Z,51.2
2022-12-25T02:43:06.518Z,51.2
2022-12-25T02:44:07.592Z,51.3
2022-12-25T02:45:01.957Z,51.7
2022-12-25T02:46:05.402Z,51.1
2022-12-25T02:47:03.913Z,51.5
2022-12-25T02:48:02.606Z,51.1
2022-12-25T02:49:07.048Z,51.0
2022-12-25T02:50:04.141Z,50.7
2022-12-25T02:51:05.410Z,50.9
2022-12-25T02:52:06.294Z,51.1
2022-12-25T02:53:03.322Z,50.9
2022-12-25T02:54:06.860Z,50.8
2022-12-25T02:55:05.050Z,50.7
2022-12-25T02:56:01.932Z,50.3
2022-12-25T02:57:04.972Z,50.3
2022-12-25T02:58:06.423Z,50.8
2022-12-25T02:59:02.821Z,50.8
2022-12-25T03:00:03.570Z,50.6
2022-12-25T03:01:05.270Z,50.7
2022-12-25T03:02:04.375Z,50.9
2022-12-25T03:03:03.712Z,50.8
2022-12-25T03:04:06.096Z,50.4
2022-12-25T03:05:06.779Z,50.8
2022-12-25T03:06:03.100Z,50.9
2022-12-25T03:07:05.594Z,50.4
2022-12-25T03:08:06.732Z,50.8
2022-12-25T03:09:04.021Z,50.4
2022-12-25T03:10:06.585Z,50.8
2022-12-25T03:11:04.943Z,50.7
2022-12-25T03:12:07.900Z,50.9
2022-12-25T03:13:05.746Z,51.1
2022-12-25T03:14:04.345Z,50.7
2022-12-25T03:15:02.181Z,51.0
2022-12-25T03:16:01.926Z,50.6
2022-12-25T03:17:01.631Z,50.9
2022-12-25T03:18:06.318Z,51.0
2022-12-25T03:19:01.881Z,50.7
2022-12-25T03:20:02.373Z,51.1
2022-12-25T03:21:02.829Z,51.0
2022-12-25T03:22:04.381Z,50.6
2022-12-25T03:23:02.702Z,50.4
2022-12-25T03:24:01.835Z,50.7
2022-12-25T03:25:02.138Z,50.5
2022-12-25T03:26:01.659Z,50.6
2022-12-25T03:27:01.886Z,50.4
2022-12-25T03:28:01.929Z,51.0
2022-12-25T03:29:01.925Z,51.0
2022-12-25T03:30:02.835Z,50.9
2022-12-25T03:31:11.763Z,50.6
2022-12-25T03:32:08.933Z,50.6
2022-12-25T03:33:36.645Z,50.7
2022-12-25T03:34:18.911Z,50.9
2022-12-25T03:35:07.811Z,50.8
2022-12-25T03:36:12.056Z,50.7
2022-12-25T03:37:17.082Z,50.7
2022-12-25T03:38:15.556Z,51.2
2022-12-25T03:39:09.142Z,51.0
2022-12-25T03:40:09.920Z,50.6
2022-12-25T03:41:12.211Z,50.7
2022-12-25T03:42:05.627Z,51.1
2022-12-25T03:43:11.603Z,50.6
2022-12-25T03:44:09.956Z,50.5
2022-12-25T03:45:10.325Z,50.8
2022-12-25T03:46:07.312Z,50.7
2022-12-25T03:47:12.186Z,50.2
2022-12-25T03:48:05.084Z,50.6
2022-12-25T03:49:08.749Z,50.6
2022-12-25T03:50:11.786Z,50.1
2022-12-25T03:51:07.188Z,50.7
2022-12-25T03:52:03.438Z,51.0
2022-12-25T03:53:06.731Z,51.0
2022-12-25T03:54:08.418Z,51.2
2022-12-25T03:55:07.211Z,51.1
2022-12-25T03:56:04.249Z,50.8
2022-12-25T03:57:01.810Z,51.0
2022-12-25T03:58:01.415Z,51.0
2022-12-25T03:59:02.320Z,50.9
2022-12-25T04:00:01.843Z,50.9
2022-12-25T04:01:02.308Z,50.9
2022-12-25T04:02:01.496Z,50.8
2022-12-25T04:03:01.441Z,50.8
2022-12-25T04:04:01.757Z,50.7
2022-12-25T04:05:02.240Z,50.6
2022-12-25T04:06:01.366Z,50.8
2022-12-25T04:07:01.373Z,51.2
2022-12-25T04:08:01.376Z,50.9
2022-12-25T04:09:01.729Z,50.8
2022-12-25T04:10:01.405Z,51.1
2022-12-25T04:11:01.392Z,50.9
2022-12-25T04:12:03.065Z,51.4
2022-12-25T04:13:02.173Z,51.2
2022-12-25T04:14:01.727Z,51.2
2022-12-25T04:15:01.894Z,50.8
2022-12-25T04:16:02.246Z,50.9
2022-12-25T04:17:01.392Z,51.2
2022-12-25T04:18:01.730Z,50.7
2022-12-25T04:19:01.374Z,51.1
2022-12-25T04:20:01.424Z,51.1
2022-12-25T04:21:01.753Z,51.2
2022-12-25T04:22:01.733Z,51.5
2022-12-25T04:23:01.845Z,51.6
2022-12-25T04:24:01.378Z,51.5
2022-12-25T04:25:01.433Z,51.1
2022-12-25T04:26:02.246Z,50.8
2022-12-25T04:27:02.071Z,50.8
2022-12-25T04:28:01.990Z,51.2
2022-12-25T04:29:01.759Z,51.4
2022-12-25T04:30:01.427Z,51.1
2022-12-25T04:31:01.431Z,51.4
2022-12-25T04:32:01.803Z,51.3
2022-12-25T04:33:01.718Z,51.0
2022-12-25T04:34:01.376Z,50.9
2022-12-25T04:35:01.859Z,51.5
2022-12-25T04:36:01.713Z,51.6
2022-12-25T04:37:01.378Z,52.0
2022-12-25T04:38:01.961Z,51.9
2022-12-25T04:39:01.392Z,51.5
2022-12-25T04:40:01.396Z,51.0
2022-12-25T04:41:02.108Z,51.4
2022-12-25T04:42:01.379Z,51.1
2022-12-25T04:43:01.398Z,51.2
2022-12-25T04:44:02.065Z,51.6
2022-12-25T04:45:01.482Z,51.4
2022-12-25T04:46:03.415Z,51.5
2022-12-25T04:47:05.855Z,51.7
2022-12-25T04:48:01.728Z,52.0
2022-12-25T04:49:02.591Z,51.7
2022-12-25T04:50:01.714Z,51.7
2022-12-25T04:51:12.464Z,51.6
2022-12-25T04:52:01.746Z,51.4
2022-12-25T04:53:01.381Z,51.3
2022-12-25T04:54:01.729Z,51.7
2022-12-25T04:55:02.477Z,51.7
2022-12-25T04:56:02.087Z,52.2
2022-12-25T04:57:01.401Z,51.7
2022-12-25T04:58:01.720Z,52.0
2022-12-25T04:59:01.404Z,52.1
2022-12-25T05:00:02.343Z,52.3
2022-12-25T05:01:03.827Z,52.0
2022-12-25T05:02:01.819Z,52.2
2022-12-25T05:03:01.528Z,52.0
2022-12-25T05:04:02.322Z,51.9
2022-12-25T05:05:01.780Z,51.9
2022-12-25T05:06:01.555Z,51.7
2022-12-25T05:07:01.391Z,51.5
2022-12-25T05:08:01.434Z,51.5
2022-12-25T05:09:01.741Z,51.6
2022-12-25T05:10:01.809Z,51.8
2022-12-25T05:11:06.441Z,51.8
2022-12-25T05:12:01.383Z,51.6
2022-12-25T05:13:01.760Z,52.1
2022-12-25T05:14:01.737Z,51.7
2022-12-25T05:15:01.384Z,52.4
2022-12-25T05:16:04.095Z,52.5
2022-12-25T05:17:01.491Z,52.5
2022-12-25T05:18:01.374Z,52.5
2022-12-25T05:19:01.745Z,52.4
2022-12-25T05:20:01.773Z,51.9
2022-12-25T05:21:01.401Z,51.8
2022-12-25T05:22:02.019Z,52.1
2022-12-25T05:23:01.800Z,52.0
2022-12-25T05:24:01.450Z,51.9
2022-12-25T05:25:01.398Z,51.8
2022-12-25T05:26:04.514Z,52.0
2022-12-25T05:27:01.385Z,51.9
2022-12-25T05:28:01.378Z,51.9
2022-12-25T05:29:01.356Z,52.2
2022-12-25T05:30:02.709Z,52.3
2022-12-25T05:31:01.829Z,52.0
2022-12-25T05:32:01.359Z,52.0
2022-12-25T05:33:02.259Z,52.0
2022-12-25T05:34:01.417Z,52.8
2022-12-25T05:35:01.410Z,52.3
2022-12-25T05:36:01.887Z,52.5
2022-12-25T05:37:01.386Z,52.2
2022-12-25T05:38:01.368Z,52.2
2022-12-25T05:39:01.396Z,52.4
2022-12-25T05:40:02.131Z,52.6
2022-12-25T05:41:01.412Z,52.0
2022-12-25T05:42:01.768Z,51.9
2022-12-25T05:43:01.365Z,52.0
2022-12-25T05:44:02.351Z,51.5
2022-12-25T05:45:02.181Z,51.7
2022-12-25T05:46:04.971Z,51.5
2022-12-25T05:47:01.864Z,51.1
2022-12-25T05:48:01.758Z,51.6
2022-12-25T05:49:01.754Z,51.6
2022-12-25T05:50:01.602Z,51.9
2022-12-25T05:51:04.369Z,51.8
2022-12-25T05:52:01.380Z,51.8
2022-12-25T05:53:08.037Z,52.1
2022-12-25T05:54:01.377Z,51.5
2022-12-25T05:55:02.436Z,51.4
2022-12-25T05:56:03.261Z,51.6
2022-12-25T05:57:02.071Z,51.3
2022-12-25T05:58:02.645Z,51.8
2022-12-25T05:59:01.562Z,52.3
2022-12-25T06:00:02.019Z,52.3
2022-12-25T06:01:02.028Z,52.4
2022-12-25T06:02:01.525Z,52.3
2022-12-25T06:03:02.779Z,51.8
2022-12-25T06:04:03.608Z,52.2
2022-12-25T06:05:01.427Z,52.0
2022-12-25T06:06:02.566Z,52.4
2022-12-25T06:07:01.376Z,52.1
2022-12-25T06:08:01.374Z,52.2
2022-12-25T06:09:01.376Z,52.3
2022-12-25T06:10:01.755Z,52.1
2022-12-25T06:11:03.571Z,52.2
2022-12-25T06:12:01.487Z,51.4
2022-12-25T06:13:02.004Z,51.4
2022-12-25T06:14:01.404Z,51.0
2022-12-25T06:15:01.767Z,51.4
2022-12-25T06:16:04.299Z,51.7
2022-12-25T06:17:02.157Z,52.3
2022-12-25T06:18:01.669Z,52.5
2022-12-25T06:19:01.367Z,52.6
2022-12-25T06:20:01.398Z,52.6
2022-12-25T06:21:05.766Z,52.5
2022-12-25T06:22:01.373Z,51.5
2022-12-25T06:23:01.941Z,51.6
2022-12-25T06:24:02.404Z,51.8
2022-12-25T06:25:01.912Z,51.8
2022-12-25T06:26:02.850Z,51.9
2022-12-25T06:27:01.540Z,51.4
2022-12-25T06:28:01.636Z,51.3
2022-12-25T06:29:01.423Z,51.6
2022-12-25T06:30:01.396Z,51.9
2022-12-25T06:31:06.519Z,51.3
2022-12-25T06:32:01.512Z,52.0
2022-12-25T06:33:02.422Z,51.8
2022-12-25T06:34:01.799Z,52.0
2022-12-25T06:35:01.795Z,51.3
2022-12-25T06:36:04.123Z,52.5
2022-12-25T06:37:01.793Z,51.3
2022-12-25T06:38:01.365Z,51.2
2022-12-25T06:39:02.036Z,51.4
2022-12-25T06:40:01.378Z,51.7
2022-12-25T06:41:03.215Z,52.0
2022-12-25T06:42:01.774Z,52.6
2022-12-25T06:43:01.356Z,52.5
2022-12-25T06:44:01.756Z,51.8
2022-12-25T06:45:01.748Z,51.7
2022-12-25T06:46:03.288Z,51.9
2022-12-25T06:47:01.370Z,51.9
2022-12-25T06:48:01.854Z,51.9
2022-12-25T06:49:01.427Z,51.8
2022-12-25T06:50:02.134Z,52.2
2022-12-25T06:51:02.949Z,51.8
2022-12-25T06:52:01.803Z,51.4
2022-12-25T06:53:01.552Z,51.5
2022-12-25T06:54:01.804Z,51.9
2022-12-25T06:55:01.725Z,51.5
2022-12-25T06:56:03.817Z,51.8
2022-12-25T06:57:01.751Z,51.6
2022-12-25T06:58:02.084Z,52.1
2022-12-25T06:59:03.636Z,52.1
2022-12-25T07:00:01.552Z,52.0
2022-12-25T07:01:06.938Z,51.9
2022-12-25T07:02:01.513Z,51.5
2022-12-25T07:03:01.663Z,51.7
2022-12-25T07:04:04.320Z,51.5
2022-12-25T07:05:04.202Z,51.5
2022-12-25T07:06:01.368Z,51.8
2022-12-25T07:07:08.403Z,52.1
2022-12-25T07:08:01.455Z,52.4
2022-12-25T07:09:01.409Z,52.6
2022-12-25T07:10:01.398Z,52.2
2022-12-25T07:11:01.888Z,52.0
2022-12-25T07:12:03.317Z,52.4
2022-12-25T07:13:01.360Z,52.5
2022-12-25T07:14:01.416Z,52.4
2022-12-25T07:15:01.770Z,52.4
2022-12-25T07:16:03.284Z,52.5
2022-12-25T07:17:01.517Z,52.5
2022-12-25T07:18:01.967Z,52.6
2022-12-25T07:19:01.748Z,52.2
2022-12-25T07:20:01.419Z,52.3
2022-12-25T07:21:06.505Z,52.1
2022-12-25T07:22:01.759Z,52.4
2022-12-25T07:23:01.530Z,52.8
2022-12-25T07:24:01.787Z,52.5
2022-12-25T07:25:01.429Z,52.7
2022-12-25T07:26:02.281Z,52.7
2022-12-25T07:27:01.398Z,52.3
2022-12-25T07:28:01.374Z,52.6
2022-12-25T07:29:01.804Z,52.7
2022-12-25T07:30:01.391Z,52.8
2022-12-25T07:31:03.380Z,52.8
2022-12-25T07:32:01.861Z,52.9
2022-12-25T07:33:01.383Z,52.8
2022-12-25T07:34:02.100Z,53.1
2022-12-25T07:35:02.499Z,52.6
2022-12-25T07:36:01.889Z,52.5
2022-12-25T07:37:01.944Z,52.5
2022-12-25T07:38:01.374Z,52.8
2022-12-25T07:39:01.508Z,53.0
2022-12-25T07:40:01.441Z,53.4
2022-12-25T07:41:01.505Z,52.8
2022-12-25T07:42:01.403Z,52.7
2022-12-25T07:43:01.382Z,53.0
2022-12-25T07:44:01.775Z,53.1
2022-12-25T07:45:01.681Z,53.2
2022-12-25T07:46:01.582Z,53.0
2022-12-25T07:47:01.755Z,53.1
2022-12-25T07:48:05.286Z,53.0
2022-12-25T07:49:01.415Z,52.9
2022-12-25T07:50:01.739Z,52.9
2022-12-25T07:51:04.139Z,52.9
2022-12-25T07:52:01.804Z,52.9
2022-12-25T07:53:01.587Z,53.3
2022-12-25T07:54:01.404Z,53.5
2022-12-25T07:55:01.846Z,53.5
2022-12-25T07:56:04.990Z,53.5
2022-12-25T07:57:01.738Z,53.4
2022-12-25T07:58:01.395Z,53.2
2022-12-25T07:59:01.392Z,53.0
2022-12-25T08:00:01.913Z,53.3
2022-12-25T08:01:05.158Z,53.5
2022-12-25T08:02:01.970Z,53.3
2022-12-25T08:03:01.580Z,53.2
2022-12-25T08:04:02.057Z,53.3
2022-12-25T08:05:01.718Z,53.6
2022-12-25T08:06:03.934Z,53.8
2022-12-25T08:07:01.647Z,53.7
2022-12-25T08:08:01.496Z,53.9
2022-12-25T08:09:04.653Z,53.7
2022-12-25T08:10:01.455Z,53.9
2022-12-25T08:11:01.758Z,53.6
2022-12-25T08:12:01.406Z,53.8
2022-12-25T08:13:01.391Z,53.6
2022-12-25T08:14:04.099Z,53.3
2022-12-25T08:15:01.365Z,53.4
2022-12-25T08:16:04.597Z,54.0
2022-12-25T08:17:01.422Z,54.0
2022-12-25T08:18:01.733Z,53.9
2022-12-25T08:19:01.743Z,54.1
2022-12-25T08:20:01.415Z,54.2
2022-12-25T08:21:03.569Z,54.0
2022-12-25T08:22:01.388Z,54.5
2022-12-25T08:23:01.813Z,53.6
2022-12-25T08:24:01.395Z,53.5
2022-12-25T08:25:01.362Z,53.8
2022-12-25T08:26:05.499Z,53.9
2022-12-25T08:27:02.105Z,53.6
2022-12-25T08:28:01.429Z,53.8
2022-12-25T08:29:02.075Z,53.6
2022-12-25T08:30:01.418Z,53.7
2022-12-25T08:31:06.942Z,54.1
2022-12-25T08:32:01.732Z,54.3
2022-12-25T08:33:01.473Z,54.1
2022-12-25T08:34:03.235Z,53.9
2022-12-25T08:35:01.393Z,53.8
2022-12-25T08:36:02.026Z,53.9
2022-12-25T08:37:01.368Z,53.5
2022-12-25T08:38:01.842Z,53.8
2022-12-25T08:39:03.230Z,54.3
2022-12-25T08:40:01.545Z,53.9
2022-12-25T08:41:02.330Z,54.3
2022-12-25T08:42:01.395Z,53.9
2022-12-25T08:43:01.770Z,54.3
2022-12-25T08:44:01.851Z,54.3
2022-12-25T08:45:01.701Z,53.9
2022-12-25T08:46:01.497Z,54.0
2022-12-25T08:47:01.723Z,53.8
2022-12-25T08:48:01.756Z,53.6
2022-12-25T08:49:01.895Z,53.8
2022-12-25T08:50:01.767Z,54.2
2022-12-25T08:51:03.597Z,54.2
2022-12-25T08:52:01.416Z,54.3
2022-12-25T08:53:01.388Z,54.5
2022-12-25T08:54:01.363Z,54.6
2022-12-25T08:55:01.728Z,54.5
2022-12-25T08:56:03.589Z,54.5
2022-12-25T08:57:03.013Z,54.9
2022-12-25T08:58:01.379Z,54.6
2022-12-25T08:59:01.900Z,54.2
2022-12-25T09:00:01.425Z,54.8
2022-12-25T09:01:01.512Z,54.4
2022-12-25T09:02:01.614Z,54.4
2022-12-25T09:03:02.099Z,54.3
2022-12-25T09:04:01.744Z,54.5
2022-12-25T09:05:01.367Z,54.3
2022-12-25T09:06:03.216Z,54.4
2022-12-25T09:07:02.761Z,54.5
2022-12-25T09:08:01.360Z,54.6
2022-12-25T09:09:01.400Z,54.5
2022-12-25T09:10:01.463Z,54.8
2022-12-25T09:11:02.740Z,54.6
2022-12-25T09:12:01.742Z,54.4
2022-12-25T09:13:02.254Z,54.6
2022-12-25T09:14:01.375Z,54.9
2022-12-25T09:15:01.842Z,54.8
2022-12-25T09:16:05.442Z,54.7
2022-12-25T09:17:01.360Z,54.5
2022-12-25T09:18:01.725Z,54.9
2022-12-25T09:19:01.770Z,54.8
2022-12-25T09:20:01.812Z,54.4
2022-12-25T09:21:04.320Z,54.3
2022-12-25T09:22:02.743Z,54.3
2022-12-25T09:23:01.753Z,54.2
2022-12-25T09:24:02.083Z,54.2
2022-12-25T09:25:01.895Z,54.1
2022-12-25T09:26:03.837Z,54.5
2022-12-25T09:27:01.373Z,54.5
2022-12-25T09:28:01.771Z,54.6
2022-12-25T09:29:01.405Z,54.1
2022-12-25T09:30:01.808Z,54.1
2022-12-25T09:31:02.262Z,54.7
2022-12-25T09:32:01.358Z,55.1
2022-12-25T09:33:01.384Z,54.6
2022-12-25T09:34:01.743Z,54.5
2022-12-25T09:35:01.644Z,54.6
2022-12-25T09:36:04.853Z,54.7
2022-12-25T09:37:02.148Z,54.5
2022-12-25T09:38:01.751Z,54.6
2022-12-25T09:39:01.807Z,54.7
2022-12-25T09:40:01.658Z,54.5
2022-12-25T09:41:07.086Z,54.9
2022-12-25T09:42:06.704Z,54.5
2022-12-25T09:43:03.672Z,54.6
2022-12-25T09:44:06.113Z,54.5
2022-12-25T09:45:09.656Z,54.9
2022-12-25T09:46:03.330Z,54.6
2022-12-25T09:47:05.842Z,54.6
2022-12-25T09:48:01.513Z,54.8
2022-12-25T09:49:05.374Z,54.4
2022-12-25T09:50:07.099Z,54.9
2022-12-25T09:51:08.859Z,54.7
2022-12-25T09:52:09.123Z,54.7
2022-12-25T09:53:07.417Z,54.6
2022-12-25T09:54:09.789Z,54.3
2022-12-25T09:55:14.801Z,54.5
2022-12-25T09:56:09.727Z,54.5
2022-12-25T09:57:02.720Z,54.7
2022-12-25T09:58:09.801Z,54.8
2022-12-25T09:59:01.785Z,55.1
2022-12-25T10:00:01.769Z,55.3
2022-12-25T10:01:14.563Z,55.3
2022-12-25T10:02:19.626Z,55.1
2022-12-25T10:03:11.812Z,55.0
2022-12-25T10:04:20.779Z,55.0
2022-12-25T10:05:15.857Z,54.9
2022-12-25T10:06:12.799Z,54.8
2022-12-25T10:07:13.142Z,55.1
2022-12-25T10:08:11.636Z,55.2
2022-12-25T10:09:11.423Z,55.4
2022-12-25T10:10:18.516Z,55.5
2022-12-25T10:11:14.744Z,55.5
2022-12-25T10:12:16.021Z,55.1
2022-12-25T10:13:10.888Z,55.1
2022-12-25T10:14:18.477Z,55.3
2022-12-25T10:15:18.148Z,55.3
2022-12-25T10:16:13.764Z,55.2
2022-12-25T10:17:20.767Z,54.8
2022-12-25T10:18:20.773Z,55.0
2022-12-25T10:19:16.246Z,55.2
2022-12-25T10:20:12.728Z,55.2
2022-12-25T10:21:09.384Z,55.6
2022-12-25T10:22:12.840Z,55.6
2022-12-25T10:23:09.318Z,55.8
2022-12-25T10:24:09.961Z,55.5
2022-12-25T10:25:03.653Z,55.6
2022-12-25T10:26:02.310Z,55.7
2022-12-25T10:27:06.877Z,55.8
2022-12-25T10:28:08.927Z,55.7
2022-12-25T10:29:11.559Z,55.5
2022-12-25T10:30:13.015Z,55.7
2022-12-25T10:31:14.919Z,55.8
2022-12-25T10:32:01.449Z,55.9
2022-12-25T10:33:01.504Z,55.4
2022-12-25T10:34:02.684Z,55.1
2022-12-25T10:35:01.759Z,55.1
2022-12-25T10:36:01.973Z,55.2
2022-12-25T10:37:01.459Z,55.4
2022-12-25T10:38:05.829Z,55.7
2022-12-25T10:39:02.048Z,55.6
2022-12-25T10:40:01.378Z,56.0
2022-12-25T10:41:16.054Z,55.8
2022-12-25T10:42:20.656Z,55.8
2022-12-25T10:43:08.123Z,56.0
2022-12-25T10:44:12.163Z,55.8
2022-12-25T10:45:04.177Z,56.0
2022-12-25T10:46:08.585Z,56.3
2022-12-25T10:47:03.499Z,55.6
2022-12-25T10:48:07.363Z,55.5
2022-12-25T10:49:02.381Z,55.4
2022-12-25T10:50:08.073Z,55.9
2022-12-25T10:51:01.949Z,55.7
2022-12-25T10:52:02.729Z,55.9
2022-12-25T10:53:04.604Z,55.8
2022-12-25T10:54:03.667Z,56.2
2022-12-25T10:55:10.727Z,55.9
2022-12-25T10:56:04.032Z,56.3
2022-12-25T10:57:03.760Z,56.6
2022-12-25T10:58:02.156Z,55.8
2022-12-25T10:59:04.922Z,56.1
2022-12-25T11:00:14.409Z,55.8
2022-12-25T11:01:05.175Z,56.0
2022-12-25T11:02:13.224Z,55.6
2022-12-25T11:03:02.225Z,56.0
2022-12-25T11:04:01.944Z,56.0
2022-12-25T11:05:04.125Z,56.3
2022-12-25T11:06:02.140Z,56.6
2022-12-25T11:07:19.641Z,56.4
2022-12-25T11:08:03.081Z,56.5
2022-12-25T11:09:02.624Z,56.1
2022-12-25T11:10:05.912Z,56.5
2022-12-25T11:11:04.556Z,56.7
2022-12-25T11:12:01.556Z,56.7
2022-12-25T11:13:04.640Z,56.6
2022-12-25T11:14:02.777Z,56.4
2022-12-25T11:15:06.027Z,56.6
2022-12-25T11:16:05.879Z,56.1
2022-12-25T11:17:07.639Z,56.7
2022-12-25T11:18:01.508Z,56.6
2022-12-25T11:19:01.999Z,56.7
2022-12-25T11:20:02.378Z,56.7
2022-12-25T11:21:12.528Z,56.5
2022-12-25T11:22:02.523Z,56.6
2022-12-25T11:23:01.378Z,56.8
2022-12-25T11:24:03.175Z,57.0
2022-12-25T11:25:11.832Z,57.0
2022-12-25T11:26:10.608Z,56.9
2022-12-25T11:27:04.746Z,57.1
2022-12-25T11:28:05.025Z,57.4
2022-12-25T11:29:03.010Z,57.3
2022-12-25T11:30:03.116Z,56.9
2022-12-25T11:31:06.928Z,57.2
2022-12-25T11:32:05.020Z,57.5
2022-12-25T11:33:06.906Z,57.7
2022-12-25T11:34:05.864Z,57.6
2022-12-25T11:35:05.069Z,57.9
2022-12-25T11:36:08.563Z,57.6
2022-12-25T11:37:07.468Z,57.7
2022-12-25T11:38:03.031Z,57.7
2022-12-25T11:39:12.714Z,57.8
2022-12-25T11:40:01.671Z,57.9
2022-12-25T11:41:03.837Z,57.5
2022-12-25T11:42:06.265Z,57.6
2022-12-25T11:43:08.857Z,57.9
2022-12-25T11:44:13.473Z,57.8
2022-12-25T11:45:07.729Z,57.2
2022-12-25T11:46:13.114Z,57.3
2022-12-25T11:47:07.365Z,57.4
2022-12-25T11:48:10.527Z,57.4
2022-12-25T11:49:06.099Z,57.2
2022-12-25T11:50:06.827Z,57.2
2022-12-25T11:51:05.513Z,57.8
2022-12-25T11:52:01.908Z,57.8
2022-12-25T11:53:05.057Z,57.4
2022-12-25T11:54:13.814Z,57.4
2022-12-25T11:55:07.247Z,57.1
2022-12-25T11:56:07.062Z,57.7
2022-12-25T11:57:05.733Z,57.6
2022-12-25T11:58:12.403Z,57.6
2022-12-25T11:59:07.779Z,57.6
2022-12-25T12:00:05.436Z,57.4
2022-12-25T12:01:07.627Z,57.3
2022-12-25T12:02:13.180Z,57.4
2022-12-25T12:03:10.689Z,57.4
2022-12-25T12:04:06.431Z,57.1
2022-12-25T12:05:08.250Z,57.2
2022-12-25T12:06:04.728Z,57.1
2022-12-25T12:07:07.390Z,57.7
2022-12-25T12:08:03.233Z,57.5
2022-12-25T12:09:16.512Z,57.5
2022-12-25T12:10:13.049Z,57.6
2022-12-25T12:11:12.978Z,57.6
2022-12-25T12:12:08.834Z,57.4
2022-12-25T12:13:18.813Z,57.4
2022-12-25T12:14:16.468Z,57.1
2022-12-25T12:15:10.058Z,57.3
2022-12-25T12:16:01.541Z,57.4
2022-12-25T12:17:12.550Z,57.5
2022-12-25T12:18:18.292Z,57.3
2022-12-25T12:19:10.693Z,57.6
2022-12-25T12:20:11.393Z,57.5
2022-12-25T12:21:05.015Z,57.5
2022-12-25T12:22:04.316Z,57.9
2022-12-25T12:23:10.459Z,57.8
2022-12-25T12:24:06.271Z,58.2
2022-12-25T12:25:06.922Z,58.2
2022-12-25T12:26:02.322Z,57.8
2022-12-25T12:27:04.239Z,57.5
2022-12-25T12:28:05.572Z,57.8
2022-12-25T12:29:03.928Z,58.3
2022-12-25T12:30:01.947Z,58.0
2022-12-25T12:31:04.991Z,58.4
2022-12-25T12:32:04.220Z,58.4
2022-12-25T12:33:05.269Z,58.5
2022-12-25T12:34:02.124Z,58.1
2022-12-25T12:35:09.400Z,58.3
2022-12-25T12:36:05.086Z,57.9
2022-12-25T12:37:05.755Z,57.9
2022-12-25T12:38:04.449Z,58.0
2022-12-25T12:39:01.868Z,57.8
2022-12-25T12:40:03.777Z,57.8
2022-12-25T12:41:03.327Z,57.8
2022-12-25T12:42:10.666Z,57.9
2022-12-25T12:43:02.447Z,58.3
2022-12-25T12:44:04.563Z,58.0
2022-12-25T12:45:09.493Z,58.2
2022-12-25T12:46:07.563Z,57.7
2022-12-25T12:47:02.070Z,57.7
2022-12-25T12:48:11.688Z,57.7
2022-12-25T12:49:09.565Z,57.5
2022-12-25T12:50:02.195Z,57.8
2022-12-25T12:51:02.251Z,57.8
2022-12-25T12:52:06.206Z,57.8
2022-12-25T12:53:20.766Z,57.5
2022-12-25T12:54:15.689Z,57.3
2022-12-25T12:55:05.497Z,57.8
2022-12-25T12:56:13.056Z,57.9
2022-12-25T12:57:04.498Z,57.8
2022-12-25T12:58:05.092Z,57.7
2022-12-25T12:59:01.388Z,57.9
2022-12-25T13:00:09.893Z,57.9
2022-12-25T13:01:12.239Z,57.6
2022-12-25T13:02:18.173Z,57.7
2022-12-25T13:03:20.812Z,57.9
2022-12-25T13:04:17.698Z,57.7
2022-12-25T13:05:04.978Z,57.6
2022-12-25T13:06:12.271Z,57.2
2022-12-25T13:07:13.541Z,57.3
2022-12-25T13:16:02.602Z,56.4
2022-12-25T13:17:01.283Z,56.2
2022-12-25T13:18:04.782Z,55.9
2022-12-25T13:19:06.413Z,55.9
2022-12-25T13:20:01.167Z,56.0
2022-12-25T13:21:04.818Z,55.7
2022-12-25T13:22:03.759Z,55.3
2022-12-25T13:23:11.060Z,55.0
2022-12-25T13:24:03.728Z,55.0
2022-12-25T13:25:03.780Z,54.9
2022-12-25T13:26:05.487Z,55.0